createdAt,value
2018-04-19T00:02:07.337Z,13.10
2018-04-19T00:04:42.093Z,13.00
2018-04-19T00:07:09.605Z,16.20
2018-04-19T00:09:37.165Z,16.50
2018-04-19T00:12:04.664Z,15.27
2018-04-19T00:14:32.908Z,18.65
2018-04-19T00:17:00.386Z,15.73
2018-04-19T00:19:35.028Z,16.73
2018-04-19T00:22:02.516Z,18.20
2018-04-19T00:24:30.016Z,22.60
2018-04-19T00:26:57.485Z,19.00
2018-04-19T00:29:25.825Z,19.73
2018-04-19T00:31:53.396Z,23.43
2018-04-19T00:34:20.894Z,20.60
2018-04-19T00:36:48.383Z,16.50
2018-04-19T00:39:16.046Z,15.57
2018-04-19T00:41:43.499Z,16.93
2018-04-19T00:44:10.993Z,17.17
2018-04-19T00:46:39.384Z,18.10
2018-04-19T00:49:06.880Z,13.75
2018-04-19T00:51:38.318Z,15.83
2018-04-19T00:54:05.982Z,16.50
2018-04-19T00:56:35.132Z,17.83
2018-04-19T00:59:02.597Z,14.00
2018-04-19T01:01:30.364Z,22.47
2018-04-19T01:04:00.265Z,16.10
2018-04-19T01:06:31.325Z,15.60
2018-04-19T01:09:01.244Z,13.33
2018-04-19T01:11:30.441Z,15.50
2018-04-19T01:13:57.904Z,17.37
2018-04-19T01:16:25.652Z,18.93
2018-04-19T01:18:53.112Z,19.93
2018-04-19T01:21:20.577Z,19.70
2018-04-19T01:23:48.041Z,18.62
2018-04-19T01:26:15.501Z,18.40
2018-04-19T01:28:43.693Z,19.05
2018-04-19T01:31:11.425Z,17.90
2018-04-19T01:33:39.686Z,19.77
2018-04-19T01:36:21.928Z,19.87
2018-04-19T01:38:49.420Z,16.15
2018-04-19T01:41:16.883Z,20.43
2018-04-19T01:43:45.872Z,20.48
2018-04-19T01:46:13.376Z,21.80
2018-04-19T01:48:40.843Z,19.53
2018-04-19T01:51:12.386Z,16.20
2018-04-19T01:53:40.101Z,19.05
2018-04-19T01:56:07.631Z,22.70
2018-04-19T01:58:35.599Z,18.37
2018-04-19T02:01:03.111Z,18.10
2018-04-19T02:03:30.573Z,17.37
2018-04-19T02:05:58.073Z,15.97
2018-04-19T02:08:36.873Z,16.57
2018-04-19T02:11:04.325Z,16.13
2018-04-19T02:13:31.862Z,18.90
2018-04-19T02:16:00.035Z,20.53
2018-04-19T02:18:27.507Z,18.80
2018-04-19T02:20:54.982Z,17.87
2018-04-19T02:23:22.445Z,23.33
2018-04-19T02:25:49.905Z,22.07
2018-04-19T02:28:18.178Z,20.33
2018-04-19T02:30:45.669Z,19.60
2018-04-19T02:33:14.435Z,16.65
2018-04-19T02:35:41.929Z,15.90
2018-04-19T02:38:13.194Z,17.83
2018-04-19T02:40:40.677Z,18.73
2018-04-19T02:43:08.682Z,23.65
2018-04-19T02:45:36.160Z,19.52
2018-04-19T02:48:03.673Z,18.97
2018-04-19T02:50:31.214Z,16.17
2018-04-19T02:53:05.873Z,21.45
2018-04-19T02:55:34.207Z,22.02
2018-04-19T02:58:01.680Z,14.13
2018-04-19T03:00:29.170Z,18.93
2018-04-19T03:02:56.630Z,16.23
2018-04-19T03:05:24.110Z,21.73
2018-04-19T03:07:54.997Z,15.77
2018-04-19T03:10:22.482Z,17.93
2018-04-19T03:12:49.964Z,16.00
2018-04-19T03:15:18.142Z,14.43
2018-04-19T03:17:45.593Z,17.07
2018-04-19T03:20:13.118Z,23.17
2018-04-19T03:22:44.928Z,18.23
2018-04-19T03:25:13.980Z,24.70
2018-04-19T03:27:41.550Z,27.37
2018-04-19T03:30:08.998Z,19.20
2018-04-19T03:32:36.503Z,20.42
2018-04-19T03:35:03.964Z,14.50
2018-04-19T03:37:32.223Z,18.60
2018-04-19T03:39:59.680Z,16.15
2018-04-19T03:42:27.169Z,17.30
2018-04-19T03:44:54.626Z,14.83
2018-04-19T03:47:22.102Z,23.58
2018-04-19T03:49:52.004Z,13.52
2018-04-19T03:52:19.655Z,17.20
2018-04-19T03:54:47.631Z,14.52
2018-04-19T03:57:16.041Z,16.20
2018-04-19T03:59:43.659Z,18.73
2018-04-19T04:02:11.151Z,14.10
2018-04-19T04:04:39.387Z,15.23
2018-04-19T04:07:06.872Z,18.43
2018-04-19T04:09:34.341Z,16.10
2018-04-19T04:12:02.584Z,14.50
2018-04-19T04:14:30.225Z,17.25
2018-04-19T04:17:09.315Z,17.20
2018-04-19T04:19:48.571Z,12.02
2018-04-19T04:22:27.824Z,14.70
2018-04-19T04:24:56.136Z,11.07
2018-04-19T04:27:23.622Z,14.20
2018-04-19T04:29:51.120Z,15.97
2018-04-19T04:32:19.525Z,16.00
2018-04-19T04:34:47.015Z,22.30
2018-04-19T04:37:14.492Z,14.93
2018-04-19T04:39:41.968Z,17.63
2018-04-19T04:42:09.434Z,13.57
2018-04-19T04:44:36.918Z,15.07
2018-04-19T04:47:04.376Z,15.30
2018-04-19T04:49:31.945Z,16.00
2018-04-19T04:51:59.409Z,19.10
2018-04-19T04:54:26.875Z,16.27
2018-04-19T04:56:54.378Z,18.55
2018-04-19T04:59:22.748Z,15.15
2018-04-19T05:01:50.246Z,11.52
2018-04-19T05:04:17.754Z,12.40
2018-04-19T05:06:45.272Z,12.40
2018-04-19T05:09:12.725Z,11.50
2018-04-19T05:11:40.182Z,10.70
2018-04-19T05:14:08.528Z,10.95
2018-04-19T05:16:36.739Z,13.25
2018-04-19T05:19:04.266Z,15.10
2018-04-19T05:21:31.782Z,12.43
2018-04-19T05:23:59.267Z,17.13
2018-04-19T05:26:26.741Z,14.50
2018-04-19T05:28:54.258Z,20.63
2018-04-19T05:31:21.844Z,15.43
2018-04-19T05:33:49.592Z,12.75
2018-04-19T05:36:17.091Z,27.65
2018-04-19T05:38:44.561Z,15.27
2018-04-19T05:41:16.319Z,16.00
2018-04-19T05:43:44.701Z,15.27
2018-04-19T05:46:12.167Z,17.10
2018-04-19T05:48:39.661Z,14.30
2018-04-19T05:51:07.132Z,17.73
2018-04-19T05:53:34.602Z,18.45
2018-04-19T05:56:02.102Z,17.30
2018-04-19T05:58:29.589Z,19.27
2018-04-19T06:00:57.046Z,18.23
2018-04-19T06:03:24.596Z,18.40
2018-04-19T06:05:53.750Z,17.70
2018-04-19T06:08:21.206Z,23.77
2018-04-19T06:10:58.979Z,15.80
2018-04-19T06:13:26.434Z,16.63
2018-04-19T06:15:55.053Z,15.30
2018-04-19T06:18:24.214Z,18.70
2018-04-19T06:20:51.663Z,16.53
2018-04-19T06:23:19.224Z,20.40
2018-04-19T06:25:46.691Z,15.27
2018-04-19T06:28:14.234Z,19.62
2018-04-19T06:30:41.727Z,15.97
2018-04-19T06:33:09.188Z,10.50
2018-04-19T06:35:36.682Z,13.10
2018-04-19T06:38:04.165Z,11.73
2018-04-19T06:40:31.652Z,22.90
2018-04-19T06:42:59.437Z,18.50
2018-04-19T06:45:28.117Z,19.00
2018-04-19T06:47:55.679Z,24.57
2018-04-19T06:50:23.233Z,17.83
2018-04-19T06:52:50.725Z,19.60
2018-04-19T06:55:18.261Z,14.00
2018-04-19T06:57:49.814Z,14.52
2018-04-19T07:00:17.365Z,11.97
2018-04-19T07:02:44.819Z,11.57
2018-04-19T07:05:12.287Z,12.85
2018-04-19T07:07:41.438Z,13.55
2018-04-19T07:10:08.940Z,12.40
2018-04-19T07:12:36.421Z,14.57
2018-04-19T07:15:03.906Z,13.40
2018-04-19T07:17:31.396Z,12.57
2018-04-19T07:19:58.876Z,13.00
2018-04-19T07:22:26.373Z,13.73
2018-04-19T07:24:53.884Z,16.47
2018-04-19T07:27:21.353Z,13.32
2018-04-19T07:29:49.147Z,15.00
2018-04-19T07:32:16.662Z,16.03
2018-04-19T07:34:44.482Z,12.65
2018-04-19T07:37:12.099Z,10.87
2018-04-19T07:39:39.837Z,14.27
2018-04-19T07:42:07.320Z,14.95
2018-04-19T07:44:35.574Z,10.30
2018-04-19T07:47:04.194Z,11.33
2018-04-19T07:49:31.710Z,14.20
2018-04-19T07:51:59.160Z,11.00
2018-04-19T07:54:26.664Z,13.43
2018-04-19T07:56:54.108Z,10.90
2018-04-19T07:59:21.756Z,13.80
2018-04-19T08:01:49.295Z,15.27
2018-04-19T08:04:17.539Z,13.15
2018-04-19T08:06:45.157Z,13.63
2018-04-19T08:09:13.082Z,11.13
2018-04-19T08:11:40.588Z,10.20
2018-04-19T08:14:08.813Z,8.07
2018-04-19T08:16:36.616Z,8.57
2018-04-19T08:19:04.107Z,12.10
2018-04-19T08:21:31.660Z,16.50
2018-04-19T08:23:59.202Z,10.85
2018-04-19T08:26:26.891Z,11.87
2018-04-19T08:28:54.363Z,9.20
2018-04-19T08:31:21.862Z,10.50
2018-04-19T08:33:50.090Z,10.63
2018-04-19T08:36:17.531Z,13.05
2018-04-19T08:38:45.763Z,8.87
2018-04-19T08:41:13.262Z,7.83
2018-04-19T08:43:44.412Z,13.93
2018-04-19T08:46:12.195Z,14.75
2018-04-19T08:48:39.661Z,8.97
2018-04-19T08:51:07.144Z,8.95
2018-04-19T08:53:34.624Z,8.93
2018-04-19T08:56:02.102Z,7.80
2018-04-19T08:58:33.988Z,8.20
2018-04-19T09:01:01.447Z,6.93
2018-04-19T09:03:29.080Z,6.37
2018-04-19T09:05:56.581Z,5.87
2018-04-19T09:08:24.155Z,7.17
2018-04-19T09:10:51.690Z,8.97
2018-04-19T09:13:19.162Z,7.40
2018-04-19T09:15:46.652Z,11.25
2018-04-19T09:18:14.106Z,6.00
2018-04-19T09:20:41.596Z,5.63
2018-04-19T09:23:09.185Z,6.00
2018-04-19T09:25:36.675Z,8.60
2018-04-19T09:28:04.157Z,7.17
2018-04-19T09:30:32.267Z,10.18
2018-04-19T09:32:59.780Z,5.80
2018-04-19T09:35:27.300Z,6.17
2018-04-19T09:37:54.810Z,6.17
2018-04-19T09:40:22.295Z,6.07
2018-04-19T09:42:49.825Z,10.70
2018-04-19T09:45:18.060Z,6.13
2018-04-19T09:47:45.698Z,7.00
2018-04-19T09:50:13.164Z,7.30
2018-04-19T09:52:40.641Z,8.33
2018-04-19T09:55:08.817Z,6.60
2018-04-19T09:57:36.308Z,9.70
2018-04-19T10:00:03.803Z,9.80
2018-04-19T10:02:38.425Z,6.75
2018-04-19T10:05:05.949Z,4.40
2018-04-19T10:07:33.476Z,6.23
2018-04-19T10:10:00.954Z,6.37
2018-04-19T10:12:28.407Z,6.37
2018-04-19T10:14:55.908Z,9.93
2018-04-19T10:17:23.409Z,5.20
2018-04-19T10:19:50.887Z,7.77
2018-04-19T10:22:19.097Z,7.97
2018-04-19T10:24:46.560Z,8.20
2018-04-19T10:27:14.065Z,12.37
2018-04-19T10:29:41.540Z,6.80
2018-04-19T10:32:10.101Z,3.72
2018-04-19T10:34:39.287Z,4.47
2018-04-19T10:37:06.743Z,5.33
2018-04-19T10:39:34.205Z,12.87
2018-04-19T10:42:01.697Z,10.93
2018-04-19T10:44:29.177Z,6.12
2018-04-19T10:46:57.566Z,4.27
2018-04-19T10:49:25.063Z,3.57
2018-04-19T10:51:52.554Z,11.50
2018-04-19T10:54:20.908Z,6.50
2018-04-19T10:56:49.206Z,8.27
2018-04-19T10:59:17.425Z,6.30
2018-04-19T11:01:44.925Z,4.18
2018-04-19T11:04:12.587Z,9.80
2018-04-19T11:06:40.295Z,8.70
2018-04-19T11:09:07.780Z,10.35
2018-04-19T11:11:36.101Z,4.65
2018-04-19T11:14:03.554Z,4.13
2018-04-19T11:16:34.820Z,6.60
2018-04-19T11:19:02.293Z,4.70
2018-04-19T11:21:29.853Z,4.67
2018-04-19T11:23:57.327Z,5.77
2018-04-19T11:26:26.258Z,4.20
2018-04-19T11:28:53.937Z,5.72
2018-04-19T11:31:21.393Z,12.67
2018-04-19T11:33:48.887Z,7.60
2018-04-19T11:36:16.362Z,3.20
2018-04-19T11:38:44.548Z,9.27
2018-04-19T11:41:12.027Z,6.53
2018-04-19T11:43:39.483Z,3.97
2018-04-19T11:46:11.029Z,4.85
2018-04-19T11:48:38.481Z,5.03
2018-04-19T11:51:06.007Z,4.00
2018-04-19T11:53:34.130Z,5.68
2018-04-19T11:56:01.601Z,10.52
2018-04-19T11:58:29.148Z,4.25
2018-04-19T12:00:56.670Z,4.75
2018-04-19T12:03:27.330Z,3.03
2018-04-19T12:05:55.603Z,7.93
2018-04-19T12:08:23.727Z,4.35
2018-04-19T12:10:51.257Z,6.63
2018-04-19T12:13:18.740Z,4.00
2018-04-19T12:15:46.233Z,3.57
2018-04-19T12:18:13.700Z,3.50
2018-04-19T12:20:41.168Z,4.10
2018-04-19T12:23:08.657Z,4.00
2018-04-19T12:25:36.098Z,3.28
2018-04-19T12:28:03.602Z,7.63
2018-04-19T12:30:31.159Z,8.30
2018-04-19T12:33:01.506Z,7.57
2018-04-19T12:35:28.977Z,3.83
2018-04-19T12:37:56.662Z,4.10
2018-04-19T12:40:24.377Z,4.27
2018-04-19T12:42:51.859Z,7.53
2018-04-19T12:45:19.316Z,7.77
2018-04-19T12:47:57.433Z,3.95
2018-04-19T12:50:24.893Z,4.93
2018-04-19T12:52:52.376Z,2.80
2018-04-19T12:55:19.856Z,3.50
2018-04-19T12:57:47.613Z,5.33
2018-04-19T13:00:15.114Z,6.80
2018-04-19T13:02:46.861Z,5.40
2018-04-19T13:05:14.353Z,6.20
2018-04-19T13:07:42.037Z,5.65
2018-04-19T13:10:09.507Z,5.40
2018-04-19T13:12:36.977Z,4.17
2018-04-19T13:15:04.446Z,4.00
2018-04-19T13:17:35.410Z,7.57
2018-04-19T13:20:02.869Z,7.53
2018-04-19T13:22:32.501Z,4.85
2018-04-19T13:25:00.103Z,5.97
2018-04-19T13:27:27.588Z,6.77
2018-04-19T13:29:55.263Z,5.57
2018-04-19T13:32:22.732Z,8.93
2018-04-19T13:34:50.243Z,3.77
2018-04-19T13:37:17.718Z,5.65
2018-04-19T13:39:46.053Z,4.03
2018-04-19T13:42:13.737Z,3.90
2018-04-19T13:44:41.194Z,3.40
2018-04-19T13:47:09.607Z,3.93
2018-04-19T13:49:37.842Z,3.30
2018-04-19T13:52:05.293Z,4.12
2018-04-19T13:54:32.869Z,3.30
2018-04-19T13:57:00.325Z,4.18
2018-04-19T13:59:28.707Z,2.33
2018-04-19T14:01:56.190Z,2.60
2018-04-19T14:04:24.027Z,3.37
2018-04-19T14:06:51.528Z,2.60
2018-04-19T14:09:19.781Z,3.75
2018-04-19T14:11:48.076Z,3.05
2018-04-19T14:14:15.753Z,6.27
2018-04-19T14:16:43.974Z,8.87
2018-04-19T14:19:11.520Z,4.60
2018-04-19T14:21:38.986Z,4.03
2018-04-19T14:24:07.164Z,5.07
2018-04-19T14:26:34.639Z,3.47
2018-04-19T14:29:02.122Z,3.70
2018-04-19T14:31:30.402Z,2.77
2018-04-19T14:33:57.857Z,5.95
2018-04-19T14:36:25.350Z,3.57
2018-04-19T14:38:52.837Z,6.20
2018-04-19T14:41:20.316Z,3.03
2018-04-19T14:43:47.823Z,6.60
2018-04-19T14:46:16.513Z,4.40
2018-04-19T14:48:43.986Z,5.57
2018-04-19T14:51:11.446Z,3.37
2018-04-19T14:53:39.020Z,7.43
2018-04-19T14:56:06.499Z,4.27
2018-04-19T14:58:35.374Z,5.97
2018-04-19T15:01:02.934Z,5.87
2018-04-19T15:03:30.404Z,7.67
2018-04-19T15:05:57.952Z,3.57
2018-04-19T15:08:25.409Z,8.00
2018-04-19T15:10:52.912Z,5.10
2018-04-19T15:13:20.519Z,5.93
2018-04-19T15:15:48.582Z,9.63
2018-04-19T15:18:16.109Z,6.50
2018-04-19T15:20:43.818Z,3.00
2018-04-19T15:23:11.333Z,4.70
2018-04-19T15:25:38.818Z,3.73
2018-04-19T15:28:06.309Z,6.22
2018-04-19T15:30:33.791Z,5.30
2018-04-19T15:33:02.078Z,5.45
2018-04-19T15:35:29.580Z,4.95
2018-04-19T15:37:57.067Z,5.73
2018-04-19T15:40:24.621Z,4.83
2018-04-19T15:42:53.184Z,6.37
2018-04-19T15:45:21.589Z,8.50
2018-04-19T15:47:49.123Z,5.82
2018-04-19T15:50:16.583Z,9.02
2018-04-19T15:52:44.377Z,5.60
2018-04-19T15:55:11.881Z,4.10
2018-04-19T15:57:39.363Z,2.83
2018-04-19T16:00:06.873Z,5.22
2018-04-19T16:02:35.112Z,4.77
2018-04-19T16:05:02.616Z,4.43
2018-04-19T16:07:34.595Z,6.17
2018-04-19T16:10:02.065Z,4.40
2018-04-19T16:12:30.023Z,8.25
2018-04-19T16:14:57.477Z,5.57
2018-04-19T16:17:24.982Z,4.07
2018-04-19T16:19:53.245Z,8.17
2018-04-19T16:22:25.820Z,5.60
2018-04-19T16:24:53.350Z,5.23
2018-04-19T16:27:20.839Z,6.83
2018-04-19T16:29:48.634Z,9.57
2018-04-19T16:32:16.162Z,11.48
2018-04-19T16:34:44.001Z,5.20
2018-04-19T16:37:11.485Z,6.20
2018-04-19T16:39:42.376Z,6.53
2018-04-19T16:42:09.877Z,9.23
2018-04-19T16:44:37.332Z,9.33
2018-04-19T16:47:04.838Z,8.00
2018-04-19T16:49:34.006Z,6.70
2018-04-19T16:52:05.446Z,6.73
2018-04-19T16:54:33.845Z,10.87
2018-04-19T16:57:01.313Z,9.40
2018-04-19T16:59:28.831Z,7.07
2018-04-19T17:01:56.289Z,6.80
2018-04-19T17:04:23.896Z,6.43
2018-04-19T17:06:51.349Z,9.37
2018-04-19T17:09:19.219Z,8.10
2018-04-19T17:11:46.713Z,5.20
2018-04-19T17:14:14.187Z,15.73
2018-04-19T17:16:43.290Z,10.05
2018-04-19T17:19:12.484Z,16.23
2018-04-19T17:21:44.061Z,9.41
2018-04-19T17:24:11.541Z,13.07
2018-04-19T17:26:38.999Z,5.93
2018-04-19T17:29:07.221Z,10.30
2018-04-19T17:31:34.679Z,8.27
2018-04-19T17:34:02.190Z,10.10
2018-04-19T17:36:29.693Z,8.80
2018-04-19T17:38:57.150Z,10.27
2018-04-19T17:41:24.729Z,5.73
2018-04-19T17:43:52.212Z,8.20
2018-04-19T17:46:19.709Z,6.27
2018-04-19T17:48:47.193Z,8.55
2018-04-19T17:51:15.873Z,5.06
2018-04-19T17:53:47.676Z,10.77
2018-04-19T17:56:16.795Z,5.43
2018-04-19T17:58:44.409Z,6.70
2018-04-19T18:01:11.897Z,7.97
2018-04-19T18:03:39.358Z,5.93
2018-04-19T18:06:06.866Z,8.87
2018-04-19T18:08:36.269Z,7.30
2018-04-19T18:11:03.733Z,4.60
2018-04-19T18:13:32.043Z,5.90
2018-04-19T18:16:00.089Z,15.80
2018-04-19T18:18:28.447Z,6.10
2018-04-19T18:20:55.912Z,5.30
2018-04-19T18:23:25.087Z,7.68
2018-04-19T18:25:52.592Z,10.05
2018-04-19T18:28:20.081Z,8.27
2018-04-19T18:30:47.605Z,5.72
2018-04-19T18:33:15.833Z,6.60
2018-04-19T18:35:48.613Z,11.20
2018-04-19T18:38:19.187Z,9.95
2018-04-19T18:40:47.737Z,5.63
2018-04-19T18:43:15.829Z,9.53
2018-04-19T18:45:43.340Z,8.90
2018-04-19T18:48:10.785Z,7.43
2018-04-19T18:50:38.282Z,8.43
2018-04-19T18:53:05.736Z,15.80
2018-04-19T18:55:33.946Z,12.73
2018-04-19T18:58:01.449Z,8.37
2018-04-19T19:00:29.169Z,16.73
2018-04-19T19:02:56.662Z,13.67
2018-04-19T19:05:24.151Z,11.27
2018-04-19T19:07:51.660Z,11.00
2018-04-19T19:10:19.180Z,7.67
2018-04-19T19:12:47.575Z,7.20
2018-04-19T19:18:40.329Z,14.20
2018-04-19T19:21:07.833Z,15.97
2018-04-19T19:23:35.290Z,9.60
2018-04-19T19:26:02.778Z,8.27
2018-04-19T19:28:31.204Z,11.95
2018-04-19T19:30:59.433Z,10.00
2018-04-19T19:33:26.944Z,9.13
2018-04-19T19:35:54.469Z,9.43
2018-04-19T19:38:22.046Z,7.87
2018-04-19T19:40:50.516Z,8.97
2018-04-19T19:43:18.066Z,13.13
2018-04-19T19:45:45.732Z,7.00
2018-04-19T19:48:13.236Z,10.32
2018-04-19T19:50:40.725Z,10.07
2018-04-19T19:53:08.254Z,8.40
2018-04-19T19:55:35.717Z,15.73
2018-04-19T19:58:04.127Z,10.33
2018-04-19T20:00:31.589Z,9.53
2018-04-19T20:02:59.169Z,8.10
2018-04-19T20:05:26.672Z,9.55
2018-04-19T20:07:54.161Z,10.83
2018-04-19T20:10:21.614Z,8.33
2018-04-19T20:12:49.100Z,16.07
2018-04-19T20:15:17.478Z,9.05
2018-04-19T20:17:44.961Z,12.90
2018-04-19T20:20:12.488Z,16.43
2018-04-19T20:22:40.019Z,13.33
2018-04-19T20:25:07.497Z,15.85
2018-04-19T20:27:35.743Z,9.03
2018-04-19T20:30:03.271Z,9.60
2018-04-19T20:32:32.365Z,7.15
2018-04-19T20:34:59.857Z,6.70
2018-04-19T20:37:27.314Z,12.23
2018-04-19T20:39:57.793Z,10.37
2018-04-19T20:42:25.249Z,11.50
2018-04-19T20:44:52.725Z,6.93
2018-04-19T20:47:20.239Z,10.50
2018-04-19T20:49:47.740Z,12.93
2018-04-19T20:52:17.060Z,10.50
2018-04-19T20:54:45.418Z,11.40
2018-04-19T20:57:13.106Z,17.80
2018-04-19T20:59:40.561Z,14.77
2018-04-19T21:02:08.047Z,9.90
2018-04-19T21:04:35.547Z,6.95
2018-04-19T21:07:03.004Z,9.85
2018-04-19T21:09:30.729Z,7.90
2018-04-19T21:11:58.197Z,7.37
2018-04-19T21:14:25.704Z,11.20
2018-04-19T21:16:54.735Z,7.05
2018-04-19T21:19:22.999Z,11.52
2018-04-19T21:21:50.490Z,8.83
2018-04-19T21:24:18.403Z,9.18
2018-04-19T21:26:45.887Z,7.82
2018-04-19T21:29:13.364Z,10.50
2018-04-19T21:31:40.879Z,18.90
2018-04-19T21:34:09.876Z,7.62
2018-04-19T21:36:38.236Z,10.15
2018-04-19T21:39:05.709Z,7.10
2018-04-19T21:41:45.208Z,14.40
2018-04-19T21:44:12.668Z,7.67
2018-04-19T21:46:40.284Z,11.33
2018-04-19T21:49:07.721Z,7.70
2018-04-19T21:51:35.232Z,13.83
2018-04-19T21:54:03.452Z,7.53
2018-04-19T21:56:30.943Z,8.27
2018-04-19T21:58:58.430Z,8.30
2018-04-19T22:01:25.897Z,12.63
2018-04-19T22:03:53.391Z,7.50
2018-04-19T22:06:20.971Z,11.85
2018-04-19T22:08:48.502Z,10.13
2018-04-19T22:11:15.911Z,10.27
2018-04-19T22:13:43.398Z,9.45
2018-04-19T22:16:12.656Z,8.68
2018-04-19T22:18:40.135Z,11.40
2018-04-19T22:21:07.669Z,5.83
2018-04-19T22:23:35.201Z,12.90
2018-04-19T22:26:02.800Z,8.60
2018-04-19T22:28:31.622Z,7.78
2018-04-19T22:30:59.080Z,8.90
2018-04-19T22:33:26.568Z,13.25
2018-04-19T22:35:54.161Z,10.85
2018-04-19T22:38:21.628Z,9.50
2018-04-19T22:40:49.139Z,11.40
2018-04-19T22:43:16.703Z,15.17
2018-04-19T22:45:44.692Z,11.50
2018-04-19T22:48:12.176Z,10.77
2018-04-19T22:50:40.247Z,9.15
2018-04-19T22:53:07.726Z,6.90
2018-04-19T22:55:35.181Z,9.95
2018-04-19T22:58:02.659Z,12.93
2018-04-19T23:00:30.148Z,12.18
2018-04-19T23:02:59.026Z,8.38
2018-04-19T23:05:26.821Z,9.60
2018-04-19T23:07:54.296Z,11.18
2018-04-19T23:10:21.757Z,9.32
2018-04-19T23:12:53.150Z,9.82
2018-04-19T23:15:20.684Z,9.93
2018-04-19T23:17:48.253Z,8.70
2018-04-19T23:20:15.714Z,12.75
2018-04-19T23:22:43.193Z,9.15
2018-04-19T23:25:10.747Z,14.10
2018-04-19T23:27:43.458Z,15.27
2018-04-19T23:30:10.900Z,7.53
2018-04-19T23:32:38.401Z,10.87
2018-04-19T23:35:06.004Z,10.50
2018-04-19T23:37:33.495Z,7.00
2018-04-19T23:40:01.640Z,12.17
2018-04-19T23:42:29.129Z,11.63
2018-04-19T23:44:56.619Z,7.87
2018-04-19T23:47:24.163Z,9.77
2018-04-19T23:49:51.707Z,9.43
2018-04-19T23:52:19.167Z,8.13
2018-04-19T23:54:46.615Z,10.63
2018-04-19T23:57:14.166Z,11.20
2018-04-19T23:59:41.636Z,12.25
